Wetterdaten der Wetterstation 36433 Bad Salzungen

Letzte Wetterlage 26.11.2014 14:10
Wetterdiagramm
Tabellarische Darstellung
Datum Temperatur Windchill Feuchte Luftdruck Windrichtung Windstärke Niederschlag
26.11.2014 14:10 3,3 °C 3,3 °C 99 % 1017,3 hPa 45 0.0 0,00 mm
26.11.2014 14:00 3,1 °C 3,1 °C 99 % 1017,4 hPa 270 0.0 0,00 mm
26.11.2014 13:45 2,4 °C 2,4 °C 99 % 1017,4 hPa 270 0.0 0,00 mm
26.11.2014 13:30 2,0 °C 2,0 °C 99 % 1017,5 hPa 293 0.0 0,00 mm
26.11.2014 13:10 1,6 °C 1,6 °C 99 % 1017,8 hPa 45 0.0 0,00 mm
26.11.2014 13:00 1,3 °C 1,3 °C 99 % 1017,9 hPa 45 0.0 0,00 mm
26.11.2014 12:45 1,0 °C 1,0 °C 99 % 1018,2 hPa 75 0.0 0,00 mm
26.11.2014 12:30 0,8 °C 0,8 °C 99 % 1018,3 hPa 206 0.0 0,00 mm
26.11.2014 12:10 0,5 °C 0,5 °C 99 % 1018,7 hPa 270 0.0 0,00 mm
26.11.2014 12:00 0,2 °C 0,2 °C 99 % 1018,7 hPa 215 0.0 0,00 mm
26.11.2014 11:45 -0,4 °C -0,4 °C 99 % 1019,0 hPa 7 0.0 0,00 mm
26.11.2014 11:30 -0,7 °C -0,7 °C 99 % 1019,2 hPa 346 0.0 0,00 mm
26.11.2014 11:10 -0,9 °C -0,9 °C 99 % 1019,2 hPa 135 0.0 0,00 mm
26.11.2014 11:00 -1,1 °C -1,1 °C 99 % 1019,4 hPa 356 0.0 0,00 mm
26.11.2014 10:45 -1,4 °C -1,4 °C 99 % 1019,5 hPa 115 0.0 0,00 mm
26.11.2014 10:30 -1,6 °C -1,6 °C 99 % 1019,6 hPa 120 0.0 0,00 mm
26.11.2014 10:10 -1,5 °C -1,5 °C 99 % 1019,6 hPa 90 0.0 0,00 mm
26.11.2014 10:00 -1,7 °C -1,7 °C 99 % 1019,7 hPa 139 0.0 0,00 mm
26.11.2014 09:45 -1,9 °C -1,9 °C 99 % 1019,8 hPa 225 0.0 0,00 mm
26.11.2014 09:30 -2,2 °C -2,2 °C 99 % 1019,7 hPa 162 0.0 0,00 mm
26.11.2014 09:10 -2,3 °C -2,3 °C 99 % 1019,7 hPa 135 0.0 0,00 mm
26.11.2014 09:00 -2,3 °C -2,3 °C 99 % 1019,8 hPa 120 0.0 0,00 mm
26.11.2014 08:45 -2,5 °C -2,5 °C 99 % 1019,9 hPa 135 0.0 0,00 mm
26.11.2014 08:30 -2,5 °C -2,5 °C 99 % 1019,8 hPa 125 0.0 0,00 mm
26.11.2014 08:10 -2,7 °C -2,7 °C 99 % 1019,9 hPa 135 0.0 0,00 mm
Empfehlen Sie wetter.com
| Mehr
Neue Wetterwarnung

Neue Niederschlagsmeldung
Neue Meldung
Regen Liveticker
    sehr starker Regen/Gewitter
    starker Regen/Gewitter
    mäßiger bis starker Regen
    mäßiger Regen
    leichter bis mäßiger Regen
    kein Regen